createdAt,value
2022-11-10T00:02:52.518Z,97732.56
2022-11-10T00:06:14.682Z,97741.44
2022-11-10T00:09:36.274Z,97744.59
2022-11-10T00:13:01.299Z,97743.94
2022-11-10T00:16:41.606Z,97756.78
2022-11-10T00:20:03.605Z,97760.56
2022-11-10T00:23:25.275Z,97769.59
2022-11-10T00:26:47.056Z,97774.19
2022-11-10T00:30:09.253Z,97780.31
2022-11-10T00:33:32.301Z,97789.16
2022-11-10T00:36:53.945Z,97787.53
2022-11-10T00:40:16.256Z,97798.25
2022-11-10T00:43:37.812Z,97798.91
2022-11-10T00:46:59.438Z,97802.34
2022-11-10T00:50:22.421Z,97821.44
2022-11-10T00:53:44.104Z,97826.22
2022-11-10T00:57:05.866Z,97830.34
2022-11-10T01:00:27.315Z,97846.13
2022-11-10T01:03:48.935Z,97848.41
2022-11-10T01:07:12.225Z,97858.16
2022-11-10T01:10:33.905Z,97866.84
2022-11-10T01:13:56.644Z,97878.72
2022-11-10T01:17:18.251Z,97874.94
2022-11-10T01:20:39.877Z,97883.94
2022-11-10T01:24:02.931Z,97874.72
2022-11-10T01:27:24.462Z,97868.34
2022-11-10T01:30:45.959Z,97879.97
2022-11-10T01:34:08.190Z,97875.44
2022-11-10T01:37:29.654Z,97869.63
2022-11-10T01:40:52.680Z,97862.72
2022-11-10T01:44:17.489Z,97865.22
2022-11-10T01:47:39.144Z,97840.84
2022-11-10T01:51:03.372Z,97843.66
2022-11-10T01:54:28.413Z,97843.16
2022-11-10T01:57:52.024Z,97825.94
2022-11-10T02:01:13.647Z,97823.78
2022-11-10T02:04:37.132Z,97817.19
2022-11-10T02:07:58.637Z,97810.13
2022-11-10T02:11:20.397Z,97818.66
2022-11-10T02:14:43.488Z,97825.91
2022-11-10T02:18:05.014Z,97828.88
2022-11-10T02:21:27.798Z,97824.25
2022-11-10T02:24:49.288Z,97829.69
2022-11-10T02:28:11.244Z,97836.25
2022-11-10T02:31:32.923Z,97829.53
2022-11-10T02:34:54.859Z,97847.25
2022-11-10T02:38:17.836Z,97854.66
2022-11-10T02:41:39.202Z,97861.22
2022-11-10T02:45:00.919Z,97878.66
2022-11-10T02:48:22.339Z,97893.75
2022-11-10T02:51:43.660Z,97900.03
2022-11-10T02:55:07.642Z,97916.13
2022-11-10T02:58:28.841Z,97928.28
2022-11-10T03:01:50.468Z,97936.47
2022-11-10T03:05:12.736Z,97939.25
2022-11-10T03:08:34.388Z,97963.06
2022-11-10T03:11:57.366Z,97957.59
2022-11-10T03:15:19.013Z,97970.75
2022-11-10T03:18:40.575Z,97962.66
2022-11-10T03:22:02.047Z,97970.31
2022-11-10T03:25:24.129Z,97985.28
2022-11-10T03:28:47.126Z,97973.94
2022-11-10T03:32:08.721Z,97981.00
2022-11-10T03:35:30.378Z,97992.28
2022-11-10T03:38:52.044Z,97995.41
2022-11-10T03:42:13.744Z,97996.66
2022-11-10T03:45:36.619Z,97998.25
2022-11-10T03:48:58.236Z,98003.16
2022-11-10T03:52:19.865Z,98007.91
2022-11-10T03:55:41.293Z,98010.00
2022-11-10T03:59:03.045Z,98005.59
2022-11-10T04:02:25.981Z,98017.75
2022-11-10T04:06:05.004Z,98012.63
2022-11-10T04:09:26.427Z,98019.19
2022-11-10T04:13:06.173Z,98026.19
2022-11-10T04:16:27.579Z,98020.09
2022-11-10T04:19:50.539Z,98017.47
2022-11-10T04:23:31.089Z,98031.50
2022-11-10T04:26:52.636Z,98030.84
2022-11-10T04:30:14.124Z,98028.53
2022-11-10T04:33:36.103Z,98024.72
2022-11-10T04:36:59.057Z,98035.34
2022-11-10T04:40:20.297Z,98034.69
2022-11-10T04:43:42.160Z,98038.63
2022-11-10T04:47:06.466Z,98037.97
2022-11-10T04:50:31.717Z,98026.41
2022-11-10T04:53:54.780Z,98024.63
2022-11-10T04:57:16.080Z,98019.22
2022-11-10T05:00:38.495Z,98014.03
2022-11-10T05:03:59.954Z,98011.88
2022-11-10T05:07:21.479Z,97997.47
2022-11-10T05:10:44.901Z,97985.94
2022-11-10T05:14:06.692Z,97971.31
2022-11-10T05:17:28.066Z,97968.63
2022-11-10T05:20:50.541Z,97968.09
2022-11-10T05:24:12.067Z,97958.19
2022-11-10T05:27:34.984Z,97944.88
2022-11-10T05:30:56.956Z,97936.03
2022-11-10T05:34:18.328Z,97936.78
2022-11-10T05:37:40.856Z,97937.09
2022-11-10T05:41:02.522Z,97936.41
2022-11-10T05:44:26.021Z,97935.03
2022-11-10T05:47:47.285Z,97933.91
2022-11-10T05:51:08.776Z,97932.50
2022-11-10T05:54:30.158Z,97942.75
2022-11-10T05:57:53.303Z,97943.72
2022-11-10T06:01:16.743Z,97948.84
2022-11-10T06:04:38.287Z,97951.59
2022-11-10T06:08:00.350Z,97966.69
2022-11-10T06:11:21.911Z,97970.88
2022-11-10T06:14:43.735Z,97983.88
2022-11-10T06:20:56.205Z,97977.31
2022-11-10T06:24:17.458Z,97990.78
2022-11-10T06:27:39.029Z,97994.13
2022-11-10T06:31:00.620Z,98002.16
2022-11-10T06:34:22.501Z,98030.88
2022-11-10T06:37:45.188Z,98051.38
2022-11-10T06:41:06.910Z,98063.50
2022-11-10T06:44:28.657Z,98071.06
2022-11-10T06:47:50.578Z,98098.03
2022-11-10T06:51:12.291Z,98113.88
2022-11-10T06:54:35.353Z,98134.16
2022-11-10T06:57:57.670Z,98133.06
2022-11-10T07:01:22.424Z,98150.66
2022-11-10T07:04:44.650Z,98166.63
2022-11-10T07:08:07.844Z,98180.03
2022-11-10T07:11:30.705Z,98193.78
2022-11-10T07:14:52.310Z,98213.91
2022-11-10T07:18:14.120Z,98224.22
2022-11-10T07:21:35.814Z,98237.22
2022-11-10T07:24:57.717Z,98251.41
2022-11-10T07:28:23.456Z,98271.25
2022-11-10T07:31:48.667Z,98285.16
2022-11-10T07:35:10.440Z,98297.00
2022-11-10T07:38:31.988Z,98316.88
2022-11-10T07:41:53.458Z,98332.72
2022-11-10T07:45:16.708Z,98346.22
2022-11-10T07:48:38.031Z,98354.91
2022-11-10T07:51:59.647Z,98354.38
2022-11-10T07:55:21.925Z,98365.16
2022-11-10T07:58:43.666Z,98386.22
2022-11-10T08:02:08.319Z,98407.34
2022-11-10T08:05:30.059Z,98406.81
2022-11-10T08:08:51.826Z,98419.75
2022-11-10T08:12:13.680Z,98436.63
2022-11-10T08:15:36.258Z,98450.44
2022-11-10T08:18:59.064Z,98462.41
2022-11-10T08:22:21.094Z,98469.16
2022-11-10T08:25:43.213Z,98483.78
2022-11-10T08:29:04.711Z,98486.53
2022-11-10T08:32:26.450Z,98494.78
2022-11-10T08:35:51.193Z,98496.00
2022-11-10T08:39:13.325Z,98505.75
2022-11-10T08:42:38.892Z,98490.28
2022-11-10T08:46:01.837Z,98480.31
2022-11-10T08:49:23.507Z,98471.44
2022-11-10T08:52:46.432Z,98461.28
2022-11-10T08:56:08.543Z,98448.56
2022-11-10T08:59:29.631Z,98446.41
2022-11-10T09:02:51.370Z,98441.59
2022-11-10T09:06:12.977Z,98425.91
2022-11-10T09:09:35.636Z,98412.00
2022-11-10T09:13:00.354Z,98397.66
2022-11-10T09:16:21.910Z,98382.09
2022-11-10T09:19:43.666Z,98366.59
2022-11-10T09:23:06.671Z,98351.13
2022-11-10T09:26:29.230Z,98345.34
2022-11-10T09:29:50.879Z,98333.19
2022-11-10T09:33:12.639Z,98320.38
2022-11-10T09:36:34.218Z,98296.38
2022-11-10T09:39:57.651Z,98281.13
2022-11-10T09:43:30.190Z,98255.84
2022-11-10T09:46:58.163Z,98229.19
2022-11-10T09:50:27.140Z,98209.66
2022-11-10T09:53:52.816Z,98202.91
2022-11-10T09:57:16.737Z,98189.38
2022-11-10T10:00:41.863Z,98180.81
2022-11-10T10:04:15.158Z,98162.75
2022-11-10T10:07:47.365Z,98160.09
2022-11-10T10:11:17.102Z,98160.13
2022-11-10T10:14:57.561Z,98157.63
2022-11-10T10:18:29.586Z,98149.38
2022-11-10T10:22:06.890Z,98151.81
2022-11-10T10:25:29.509Z,98153.00
2022-11-10T10:28:52.579Z,98155.13
2022-11-10T10:32:15.626Z,98157.44
2022-11-10T10:35:42.004Z,98147.38
2022-11-10T10:39:07.393Z,98146.22
2022-11-10T10:42:32.431Z,98140.63
2022-11-10T10:46:06.961Z,98143.78
2022-11-10T10:49:30.781Z,98153.09
2022-11-10T10:53:18.125Z,98155.44
2022-11-10T10:56:39.554Z,98147.88
2022-11-10T11:00:21.193Z,98140.28
2022-11-10T11:03:44.419Z,98152.53
2022-11-10T11:07:08.000Z,98137.97
2022-11-10T11:10:33.499Z,98151.50
2022-11-10T11:13:55.205Z,98142.09
2022-11-10T11:17:21.304Z,98146.72
2022-11-10T11:21:01.236Z,98161.91
2022-11-10T11:24:31.433Z,98151.78
2022-11-10T11:28:04.804Z,98158.03
2022-11-10T11:31:43.203Z,98170.41
2022-11-10T11:35:15.843Z,98177.53
2022-11-10T11:38:53.071Z,98174.56
2022-11-10T11:42:28.538Z,98195.38
2022-11-10T11:45:59.700Z,98192.53
2022-11-10T11:49:36.858Z,98192.69
2022-11-10T11:53:09.517Z,98182.44
2022-11-10T11:56:34.202Z,98197.94
2022-11-10T12:00:04.629Z,98193.78
2022-11-10T12:03:49.984Z,98198.59
2022-11-10T12:07:24.929Z,98188.84
2022-11-10T12:10:58.928Z,98187.66
2022-11-10T12:14:32.884Z,98201.19
2022-11-10T12:18:05.161Z,98202.34
2022-11-10T12:21:33.233Z,98202.81
2022-11-10T12:25:11.351Z,98217.66
2022-11-10T12:28:37.569Z,98218.13
2022-11-10T12:32:05.893Z,98223.41
2022-11-10T12:35:30.065Z,98237.75
2022-11-10T12:39:00.268Z,98240.16
2022-11-10T12:42:24.100Z,98254.75
2022-11-10T12:45:48.133Z,98281.94
2022-11-10T12:49:18.575Z,98282.47
2022-11-10T12:52:45.709Z,98283.34
2022-11-10T12:56:14.942Z,98291.31
2022-11-10T12:59:38.801Z,98292.13
2022-11-10T13:03:01.110Z,98283.91
2022-11-10T13:06:28.504Z,98283.06
2022-11-10T13:09:50.204Z,98269.19
2022-11-10T13:13:15.800Z,98257.44
2022-11-10T13:16:54.343Z,98271.91
2022-11-10T13:20:48.582Z,98286.28
2022-11-10T13:24:22.642Z,98303.16
2022-11-10T13:27:53.751Z,98307.16
2022-11-10T13:31:50.929Z,98310.44
2022-11-10T13:35:54.938Z,98310.09
2022-11-10T13:39:24.286Z,98316.53
2022-11-10T13:42:47.279Z,98316.41
2022-11-10T13:46:09.236Z,98319.00
2022-11-10T13:49:53.441Z,98325.63
2022-11-10T13:53:25.903Z,98331.91
2022-11-10T13:57:15.658Z,98330.41
2022-11-10T14:00:37.882Z,98330.56
2022-11-10T14:04:02.226Z,98337.19
2022-11-10T14:27:47.041Z,98372.06
2022-11-10T14:31:20.105Z,98389.66
2022-11-10T14:34:48.050Z,98392.53
2022-11-10T14:38:20.857Z,98395.81
2022-11-10T14:41:48.035Z,98408.03
2022-11-10T14:45:17.453Z,98399.38
2022-11-10T14:48:39.849Z,98399.97
2022-11-10T14:52:01.544Z,98397.53
2022-11-10T14:55:25.089Z,98394.69
2022-11-10T14:58:49.277Z,98396.78
2022-11-10T15:02:17.050Z,98391.66
2022-11-10T15:05:39.643Z,98390.94
2022-11-10T15:09:16.358Z,98378.63
2022-11-10T15:12:41.915Z,98390.34
2022-11-10T15:16:23.022Z,98376.66
2022-11-10T15:19:56.357Z,98379.38
2022-11-10T15:23:23.685Z,98379.13
2022-11-10T15:26:45.413Z,98370.69
2022-11-10T15:30:22.787Z,98366.00
2022-11-10T15:33:48.079Z,98378.34
2022-11-10T15:37:29.151Z,98381.34
2022-11-10T15:40:54.218Z,98382.06
2022-11-10T15:44:17.971Z,98385.97
2022-11-10T15:47:39.831Z,98372.78
2022-11-10T15:51:01.559Z,98373.03
2022-11-10T15:54:28.124Z,98378.94
2022-11-10T15:57:49.468Z,98378.84
2022-11-10T16:01:13.384Z,98382.09
2022-11-10T16:04:35.079Z,98374.03
2022-11-10T16:07:56.862Z,98387.97
2022-11-10T16:11:22.437Z,98390.91
2022-11-10T16:14:47.698Z,98400.59
2022-11-10T16:18:14.340Z,98399.75
2022-11-10T16:21:35.779Z,98412.16
2022-11-10T16:24:57.285Z,98414.59
2022-11-10T16:28:24.078Z,98404.97
2022-11-10T16:31:45.566Z,98414.41
2022-11-10T16:35:07.632Z,98415.25
2022-11-10T16:38:31.288Z,98419.03
2022-11-10T16:41:52.666Z,98425.19
2022-11-10T16:45:17.388Z,98433.63
2022-11-10T16:48:39.068Z,98446.31
2022-11-10T16:52:04.450Z,98443.41
2022-11-10T16:55:25.827Z,98449.69
2022-11-10T16:58:47.433Z,98445.13
2022-11-10T17:02:26.681Z,98442.47
2022-11-10T17:05:48.745Z,98434.50
2022-11-10T17:09:17.212Z,98439.75
2022-11-10T17:12:38.935Z,98449.19
2022-11-10T17:16:04.604Z,98456.22
2022-11-10T17:19:27.998Z,98444.59
2022-11-10T17:22:50.543Z,98448.25
2022-11-10T17:26:15.337Z,98446.88
2022-11-10T17:29:37.144Z,98442.38
2022-11-10T17:33:04.569Z,98441.16
2022-11-10T17:36:28.170Z,98446.16
2022-11-10T17:39:49.906Z,98455.94
2022-11-10T17:43:15.643Z,98450.84
2022-11-10T17:46:37.170Z,98455.50
2022-11-10T17:49:58.685Z,98455.88
2022-11-10T17:53:24.775Z,98465.16
2022-11-10T17:56:46.813Z,98468.88
2022-11-10T18:00:09.961Z,98468.88
2022-11-10T18:03:31.602Z,98478.81
2022-11-10T18:06:53.215Z,98466.66
2022-11-10T18:10:16.467Z,98476.88
2022-11-10T18:13:38.496Z,98483.09
2022-11-10T18:17:00.190Z,98482.41
2022-11-10T18:20:22.081Z,98478.41
2022-11-10T18:23:44.290Z,98484.63
2022-11-10T18:27:07.534Z,98490.41
2022-11-10T18:30:34.743Z,98482.97
2022-11-10T18:33:56.816Z,98491.13
2022-11-10T18:37:19.134Z,98503.97
2022-11-10T18:40:40.655Z,98513.09
2022-11-10T18:44:03.448Z,98530.22
2022-11-10T18:47:24.985Z,98532.84
2022-11-10T18:50:46.402Z,98529.97
2022-11-10T18:54:08.378Z,98538.66
2022-11-10T18:57:30.163Z,98547.75
2022-11-10T19:00:52.839Z,98549.69
2022-11-10T19:04:15.218Z,98570.56
2022-11-10T19:07:36.738Z,98571.66
2022-11-10T19:10:58.459Z,98562.69
2022-11-10T19:14:19.976Z,98573.59
2022-11-10T19:17:42.698Z,98572.22
2022-11-10T19:21:08.068Z,98565.19
2022-11-10T19:24:34.707Z,98567.38
2022-11-10T19:27:59.850Z,98572.50
2022-11-10T19:31:22.942Z,98576.59
2022-11-10T19:34:45.603Z,98568.91
2022-11-10T19:38:07.171Z,98580.50
2022-11-10T19:41:30.901Z,98587.50
2022-11-10T19:44:52.419Z,98585.72
2022-11-10T19:48:14.370Z,98578.25
2022-11-10T19:51:37.106Z,98579.78
2022-11-10T19:54:58.954Z,98590.84
2022-11-10T19:58:21.004Z,98603.50
2022-11-10T20:01:42.341Z,98605.84
2022-11-10T20:05:17.339Z,98615.50
2022-11-10T20:08:41.111Z,98617.44
2022-11-10T20:12:03.093Z,98634.25
2022-11-10T20:15:24.571Z,98637.72
2022-11-10T20:18:46.492Z,98640.22
2022-11-10T20:22:08.224Z,98650.00
2022-11-10T20:25:31.621Z,98655.13
2022-11-10T20:28:53.501Z,98666.28
2022-11-10T20:32:15.020Z,98667.38
2022-11-10T20:35:41.728Z,98680.38
2022-11-10T20:39:03.408Z,98675.81
2022-11-10T20:42:26.288Z,98676.78
2022-11-10T20:45:48.006Z,98685.88
2022-11-10T20:49:09.566Z,98689.44
2022-11-10T20:52:33.555Z,98692.53
2022-11-10T20:55:59.632Z,98701.59
2022-11-10T20:59:23.034Z,98697.78
2022-11-10T21:02:44.831Z,98707.38
2022-11-10T21:06:07.275Z,98703.81
2022-11-10T21:09:28.930Z,98703.69
2022-11-10T21:12:50.593Z,98708.09
2022-11-10T21:16:13.582Z,98704.94
2022-11-10T21:19:35.310Z,98707.47
2022-11-10T21:23:02.044Z,98715.72
2022-11-10T21:26:25.325Z,98704.84
2022-11-10T21:29:47.205Z,98711.31
2022-11-10T21:33:09.816Z,98720.38
2022-11-10T21:36:31.746Z,98729.34
2022-11-10T21:39:53.380Z,98740.88
2022-11-10T21:43:15.187Z,98747.78
2022-11-10T21:46:37.112Z,98755.47
2022-11-10T21:50:00.090Z,98765.09
2022-11-10T21:53:22.017Z,98763.19
2022-11-10T21:56:43.687Z,98770.41
2022-11-10T22:00:06.384Z,98780.63
2022-11-10T22:03:29.509Z,98780.03
2022-11-10T22:07:10.083Z,98789.00
2022-11-10T22:10:49.033Z,98788.41
2022-11-10T22:14:29.793Z,98789.47
2022-11-10T22:18:08.020Z,98785.47
2022-11-10T22:21:29.387Z,98782.38
2022-11-10T22:24:51.895Z,98779.75
2022-11-10T22:28:13.469Z,98789.69
2022-11-10T22:31:35.162Z,98796.84
2022-11-10T22:34:56.463Z,98802.94
2022-11-10T22:38:18.250Z,98808.44
2022-11-10T22:41:58.554Z,98817.78
2022-11-10T22:45:20.124Z,98808.06
2022-11-10T22:48:41.896Z,98808.06
2022-11-10T22:52:03.400Z,98800.63
2022-11-10T22:55:25.067Z,98807.81
2022-11-10T22:58:48.166Z,98803.41
2022-11-10T23:02:09.577Z,98784.09
2022-11-10T23:05:34.849Z,98772.13
2022-11-10T23:08:56.542Z,98790.16
2022-11-10T23:12:18.374Z,98780.97
2022-11-10T23:15:41.232Z,98791.31
2022-11-10T23:19:02.754Z,98782.63
2022-11-10T23:22:24.077Z,98774.88
2022-11-10T23:25:56.539Z,98767.00
2022-11-10T23:29:17.786Z,98775.03
2022-11-10T23:32:40.660Z,98771.75
2022-11-10T23:36:03.075Z,98766.28
2022-11-10T23:39:24.773Z,98764.06
2022-11-10T23:42:46.537Z,98762.72
2022-11-10T23:46:08.261Z,98753.59
2022-11-10T23:49:31.019Z,98740.56
2022-11-10T23:52:53.192Z,98746.06
2022-11-10T23:56:15.439Z,98741.94
2022-11-10T23:59:37.098Z,98751.53
